sensor_id;sensor_type;location;lat;lon;timestamp;pressure;altitude;pressure_sealevel;temperature;humidity
57606;BME280;43430;48.204;11.556;2023-03-12T00:00:42;95533.78;;;0.80;100.00
57606;BME280;43430;48.204;11.556;2023-03-12T00:03:07;95534.41;;;0.82;100.00
57606;BME280;43430;48.204;11.556;2023-03-12T00:05:36;95537.28;;;0.87;100.00
57606;BME280;43430;48.204;11.556;2023-03-12T00:08:01;95529.50;;;0.87;100.00
57606;BME280;43430;48.204;11.556;2023-03-12T00:10:27;95528.25;;;0.83;100.00
57606;BME280;43430;48.204;11.556;2023-03-12T00:12:52;95531.22;;;0.72;100.00
57606;BME280;43430;48.204;11.556;2023-03-12T00:15:17;95540.44;;;0.75;100.00
57606;BME280;43430;48.204;11.556;2023-03-12T00:17:43;95534.00;;;0.70;100.00
57606;BME280;43430;48.204;11.556;2023-03-12T00:20:09;95532.72;;;0.66;100.00
57606;BME280;43430;48.204;11.556;2023-03-12T00:22:36;95531.59;;;0.69;100.00
57606;BME280;43430;48.204;11.556;2023-03-12T00:25:01;95525.56;;;0.68;100.00
57606;BME280;43430;48.204;11.556;2023-03-12T00:27:26;95525.44;;;0.62;100.00
57606;BME280;43430;48.204;11.556;2023-03-12T00:29:53;95528.88;;;0.54;100.00
57606;BME280;43430;48.204;11.556;2023-03-12T00:32:18;95532.66;;;0.43;100.00
57606;BME280;43430;48.204;11.556;2023-03-12T00:34:49;95529.94;;;0.37;100.00
57606;BME280;43430;48.204;11.556;2023-03-12T00:37:15;95537.59;;;0.30;100.00
57606;BME280;43430;48.204;11.556;2023-03-12T00:39:40;95543.72;;;0.37;100.00
57606;BME280;43430;48.204;11.556;2023-03-12T00:42:06;95538.06;;;0.34;100.00
57606;BME280;43430;48.204;11.556;2023-03-12T00:44:31;95548.28;;;0.27;100.00
57606;BME280;43430;48.204;11.556;2023-03-12T00:46:56;95542.25;;;0.04;100.00
57606;BME280;43430;48.204;11.556;2023-03-12T00:49:22;95542.06;;;0.05;100.00
57606;BME280;43430;48.204;11.556;2023-03-12T00:51:47;95540.47;;;0.04;100.00
57606;BME280;43430;48.204;11.556;2023-03-12T00:54:12;95542.09;;;-0.03;100.00
57606;BME280;43430;48.204;11.556;2023-03-12T00:56:38;95540.31;;;-0.11;100.00
57606;BME280;43430;48.204;11.556;2023-03-12T00:59:03;95547.00;;;-0.16;100.00
57606;BME280;43430;48.204;11.556;2023-03-12T01:01:28;95545.34;;;-0.17;100.00
57606;BME280;43430;48.204;11.556;2023-03-12T01:03:54;95548.44;;;-0.22;100.00
57606;BME280;43430;48.204;11.556;2023-03-12T01:06:20;95549.44;;;-0.31;100.00
57606;BME280;43430;48.204;11.556;2023-03-12T01:08:45;95548.00;;;-0.34;100.00
57606;BME280;43430;48.204;11.556;2023-03-12T01:11:15;95557.56;;;-0.34;100.00
57606;BME280;43430;48.204;11.556;2023-03-12T01:13:41;95555.91;;;-0.27;100.00
57606;BME280;43430;48.204;11.556;2023-03-12T01:16:06;95546.03;;;-0.23;100.00
57606;BME280;43430;48.204;11.556;2023-03-12T01:18:32;95552.69;;;-0.29;100.00
57606;BME280;43430;48.204;11.556;2023-03-12T01:20:57;95564.34;;;-0.33;100.00
57606;BME280;43430;48.204;11.556;2023-03-12T01:23:23;95556.56;;;-0.33;100.00
57606;BME280;43430;48.204;11.556;2023-03-12T01:25:49;95568.53;;;-0.24;100.00
57606;BME280;43430;48.204;11.556;2023-03-12T01:28:16;95566.06;;;-0.17;100.00
57606;BME280;43430;48.204;11.556;2023-03-12T01:30:41;95567.53;;;-0.15;100.00
57606;BME280;43430;48.204;11.556;2023-03-12T01:33:07;95558.97;;;-0.15;100.00
57606;BME280;43430;48.204;11.556;2023-03-12T01:35:37;95557.19;;;-0.15;100.00
57606;BME280;43430;48.204;11.556;2023-03-12T01:38:04;95562.34;;;-0.07;100.00
57606;BME280;43430;48.204;11.556;2023-03-12T01:40:32;95556.66;;;-0.02;100.00
57606;BME280;43430;48.204;11.556;2023-03-12T01:42:58;95558.94;;;0.01;100.00
57606;BME280;43430;48.204;11.556;2023-03-12T01:48:23;95559.56;;;0.03;100.00
57606;BME280;43430;48.204;11.556;2023-03-12T01:50:49;95541.72;;;0.08;100.00
57606;BME280;43430;48.204;11.556;2023-03-12T01:53:15;95547.75;;;0.01;100.00
57606;BME280;43430;48.204;11.556;2023-03-12T01:55:40;95542.41;;;0.02;100.00
57606;BME280;43430;48.204;11.556;2023-03-12T01:58:06;95544.31;;;0.08;100.00
57606;BME280;43430;48.204;11.556;2023-03-12T02:00:32;95545.13;;;0.09;100.00
57606;BME280;43430;48.204;11.556;2023-03-12T02:03:00;95541.69;;;0.16;100.00
57606;BME280;43430;48.204;11.556;2023-03-12T02:07:56;95542.88;;;0.14;100.00
57606;BME280;43430;48.204;11.556;2023-03-12T02:10:22;95542.34;;;0.10;100.00
57606;BME280;43430;48.204;11.556;2023-03-12T02:12:47;95552.75;;;0.02;100.00
57606;BME280;43430;48.204;11.556;2023-03-12T02:15:13;95561.34;;;0.03;100.00
57606;BME280;43430;48.204;11.556;2023-03-12T02:17:38;95569.94;;;-0.05;100.00
57606;BME280;43430;48.204;11.556;2023-03-12T02:20:27;95570.44;;;-0.02;100.00
57606;BME280;43430;48.204;11.556;2023-03-12T02:23:11;95568.81;;;-0.11;100.00
57606;BME280;43430;48.204;11.556;2023-03-12T02:25:47;95567.38;;;-0.13;100.00
57606;BME280;43430;48.204;11.556;2023-03-12T02:28:16;95570.94;;;-0.06;100.00
57606;BME280;43430;48.204;11.556;2023-03-12T02:30:46;95574.34;;;-0.06;100.00
57606;BME280;43430;48.204;11.556;2023-03-12T02:33:13;95576.31;;;-0.24;100.00
57606;BME280;43430;48.204;11.556;2023-03-12T02:35:39;95570.59;;;-0.11;100.00
57606;BME280;43430;48.204;11.556;2023-03-12T02:38:31;95576.28;;;-0.08;100.00
57606;BME280;43430;48.204;11.556;2023-03-12T02:41:01;95569.28;;;-0.07;100.00
57606;BME280;43430;48.204;11.556;2023-03-12T02:43:28;95579.53;;;-0.22;100.00
57606;BME280;43430;48.204;11.556;2023-03-12T02:45:54;95575.00;;;-0.28;100.00
57606;BME280;43430;48.204;11.556;2023-03-12T02:48:20;95574.19;;;-0.29;100.00
57606;BME280;43430;48.204;11.556;2023-03-12T02:50:45;95584.41;;;-0.19;100.00
57606;BME280;43430;48.204;11.556;2023-03-12T02:53:11;95575.81;;;-0.28;100.00
57606;BME280;43430;48.204;11.556;2023-03-12T02:55:37;95584.88;;;-0.32;100.00
57606;BME280;43430;48.204;11.556;2023-03-12T02:58:02;95588.13;;;-0.30;100.00
57606;BME280;43430;48.204;11.556;2023-03-12T03:00:27;95592.50;;;-0.38;100.00
57606;BME280;43430;48.204;11.556;2023-03-12T03:02:57;95591.56;;;-0.54;100.00
57606;BME280;43430;48.204;11.556;2023-03-12T03:05:23;95600.28;;;-0.46;100.00
57606;BME280;43430;48.204;11.556;2023-03-12T03:07:48;95598.19;;;-0.51;100.00
57606;BME280;43430;48.204;11.556;2023-03-12T03:10:14;95600.13;;;-0.53;100.00
57606;BME280;43430;48.204;11.556;2023-03-12T03:12:41;95595.44;;;-0.50;100.00
57606;BME280;43430;48.204;11.556;2023-03-12T03:15:07;95596.72;;;-0.45;100.00
57606;BME280;43430;48.204;11.556;2023-03-12T03:17:32;95595.75;;;-0.44;100.00
57606;BME280;43430;48.204;11.556;2023-03-12T03:19:58;95600.44;;;-0.40;100.00
57606;BME280;43430;48.204;11.556;2023-03-12T03:22:23;95596.41;;;-0.42;100.00
57606;BME280;43430;48.204;11.556;2023-03-12T03:24:48;95596.41;;;-0.42;100.00
57606;BME280;43430;48.204;11.556;2023-03-12T03:27:14;95602.22;;;-0.40;100.00
57606;BME280;43430;48.204;11.556;2023-03-12T03:29:40;95602.72;;;-0.37;100.00
57606;BME280;43430;48.204;11.556;2023-03-12T03:32:06;95595.44;;;-0.33;100.00
57606;BME280;43430;48.204;11.556;2023-03-12T03:34:31;95601.41;;;-0.25;100.00
57606;BME280;43430;48.204;11.556;2023-03-12T03:36:57;95602.22;;;-0.32;100.00
57606;BME280;43430;48.204;11.556;2023-03-12T03:39:22;95603.03;;;-0.23;100.00
57606;BME280;43430;48.204;11.556;2023-03-12T03:41:49;95596.38;;;-0.18;100.00
57606;BME280;43430;48.204;11.556;2023-03-12T03:44:16;95592.97;;;-0.10;100.00
57606;BME280;43430;48.204;11.556;2023-03-12T03:46:42;95597.47;;;-0.04;100.00
57606;BME280;43430;48.204;11.556;2023-03-12T03:49:07;95595.69;;;-0.04;100.00
57606;BME280;43430;48.204;11.556;2023-03-12T03:51:32;95593.09;;;-0.04;100.00
57606;BME280;43430;48.204;11.556;2023-03-12T03:53:58;95606.22;;;-0.05;100.00
57606;BME280;43430;48.204;11.556;2023-03-12T03:56:25;95604.28;;;0.05;100.00
57606;BME280;43430;48.204;11.556;2023-03-12T03:58:50;95602.00;;;0.02;100.00
57606;BME280;43430;48.204;11.556;2023-03-12T04:01:16;95614.13;;;0.10;100.00
57606;BME280;43430;48.204;11.556;2023-03-12T04:03:41;95609.94;;;0.09;100.00
57606;BME280;43430;48.204;11.556;2023-03-12T04:06:07;95610.75;;;0.09;100.00
57606;BME280;43430;48.204;11.556;2023-03-12T04:08:34;95610.75;;;0.17;100.00
57606;BME280;43430;48.204;11.556;2023-03-12T04:11:13;95618.16;;;0.20;100.00
57606;BME280;43430;48.204;11.556;2023-03-12T04:13:39;95617.38;;;0.12;100.00
57606;BME280;43430;48.204;11.556;2023-03-12T04:16:05;95618.34;;;0.19;100.00
57606;BME280;43430;48.204;11.556;2023-03-12T04:18:31;95625.94;;;0.20;100.00
57606;BME280;43430;48.204;11.556;2023-03-12T04:20:56;95630.66;;;0.25;100.00
57606;BME280;43430;48.204;11.556;2023-03-12T04:23:22;95631.09;;;0.37;100.00
57606;BME280;43430;48.204;11.556;2023-03-12T04:25:47;95626.69;;;0.37;100.00
57606;BME280;43430;48.204;11.556;2023-03-12T04:28:12;95624.81;;;0.31;100.00
57606;BME280;43430;48.204;11.556;2023-03-12T04:30:38;95628.19;;;0.32;100.00
57606;BME280;43430;48.204;11.556;2023-03-12T04:33:04;95630.94;;;0.38;100.00
57606;BME280;43430;48.204;11.556;2023-03-12T04:35:29;95633.03;;;0.43;100.00
57606;BME280;43430;48.204;11.556;2023-03-12T04:37:55;95633.53;;;0.38;100.00
57606;BME280;43430;48.204;11.556;2023-03-12T04:40:20;95633.66;;;0.45;100.00
57606;BME280;43430;48.204;11.556;2023-03-12T04:42:46;95634.94;;;0.49;100.00
57606;BME280;43430;48.204;11.556;2023-03-12T04:45:12;95636.03;;;0.55;100.00
57606;BME280;43430;48.204;11.556;2023-03-12T04:47:38;95630.53;;;0.58;100.00
57606;BME280;43430;48.204;11.556;2023-03-12T04:50:03;95626.78;;;0.60;100.00
57606;BME280;43430;48.204;11.556;2023-03-12T04:52:29;95621.41;;;0.70;100.00
57606;BME280;43430;48.204;11.556;2023-03-12T04:54:54;95625.66;;;0.63;100.00
57606;BME280;43430;48.204;11.556;2023-03-12T04:57:20;95619.16;;;0.67;100.00
57606;BME280;43430;48.204;11.556;2023-03-12T04:59:46;95624.63;;;0.72;100.00
57606;BME280;43430;48.204;11.556;2023-03-12T05:02:11;95624.63;;;0.72;100.00
57606;BME280;43430;48.204;11.556;2023-03-12T05:04:36;95619.91;;;0.76;100.00
57606;BME280;43430;48.204;11.556;2023-03-12T05:07:02;95622.03;;;0.72;100.00
57606;BME280;43430;48.204;11.556;2023-03-12T05:09:27;95612.97;;;0.76;100.00
57606;BME280;43430;48.204;11.556;2023-03-12T05:11:53;95607.06;;;0.82;100.00
57606;BME280;43430;48.204;11.556;2023-03-12T05:14:18;95607.72;;;0.84;100.00
57606;BME280;43430;48.204;11.556;2023-03-12T05:16:44;95607.72;;;0.84;100.00
57606;BME280;43430;48.204;11.556;2023-03-12T05:19:09;95608.00;;;0.89;100.00
57606;BME280;43430;48.204;11.556;2023-03-12T05:21:35;95606.53;;;0.95;100.00
57606;BME280;43430;48.204;11.556;2023-03-12T05:24:00;95607.66;;;0.92;100.00
57606;BME280;43430;48.204;11.556;2023-03-12T05:26:29;95604.25;;;0.92;100.00
57606;BME280;43430;48.204;11.556;2023-03-12T05:28:59;95603.63;;;0.90;100.00
57606;BME280;43430;48.204;11.556;2023-03-12T05:31:25;95617.09;;;0.93;100.00
57606;BME280;43430;48.204;11.556;2023-03-12T05:33:51;95612.84;;;0.92;100.00
57606;BME280;43430;48.204;11.556;2023-03-12T05:36:16;95616.28;;;0.93;100.00
57606;BME280;43430;48.204;11.556;2023-03-12T05:38:42;95616.09;;;0.94;100.00
57606;BME280;43430;48.204;11.556;2023-03-12T05:41:17;95618.69;;;0.94;100.00
57606;BME280;43430;48.204;11.556;2023-03-12T05:43:43;95618.03;;;0.92;100.00
57606;BME280;43430;48.204;11.556;2023-03-12T05:46:09;95619.69;;;0.93;100.00
57606;BME280;43430;48.204;11.556;2023-03-12T05:48:34;95615.09;;;0.95;100.00
57606;BME280;43430;48.204;11.556;2023-03-12T05:51:00;95630.13;;;1.08;100.00
57606;BME280;43430;48.204;11.556;2023-03-12T05:53:26;95626.44;;;1.03;100.00
57606;BME280;43430;48.204;11.556;2023-03-12T05:55:51;95635.97;;;1.10;100.00
57606;BME280;43430;48.204;11.556;2023-03-12T05:58:17;95637.88;;;1.16;100.00
57606;BME280;43430;48.204;11.556;2023-03-12T06:01:18;95620.00;;;1.22;100.00
57606;BME280;43430;48.204;11.556;2023-03-12T06:03:44;95625.66;;;1.25;100.00
57606;BME280;43430;48.204;11.556;2023-03-12T06:06:10;95618.38;;;1.21;100.00
57606;BME280;43430;48.204;11.556;2023-03-12T06:08:37;95622.53;;;1.30;100.00
57606;BME280;43430;48.204;11.556;2023-03-12T06:11:05;95627.56;;;1.31;100.00
57606;BME280;43430;48.204;11.556;2023-03-12T06:13:31;95628.44;;;1.47;100.00
57606;BME280;43430;48.204;11.556;2023-03-12T06:16:04;95620.63;;;1.47;100.00
57606;BME280;43430;48.204;11.556;2023-03-12T06:18:31;95613.13;;;1.52;100.00
57606;BME280;43430;48.204;11.556;2023-03-12T06:21:08;95616.66;;;1.59;100.00
57606;BME280;43430;48.204;11.556;2023-03-12T06:23:35;95609.66;;;1.59;100.00
57606;BME280;43430;48.204;11.556;2023-03-12T06:26:00;95606.88;;;1.61;100.00
57606;BME280;43430;48.204;11.556;2023-03-12T06:28:25;95611.31;;;1.75;100.00
57606;BME280;43430;48.204;11.556;2023-03-12T06:30:54;95601.19;;;1.80;100.00
57606;BME280;43430;48.204;11.556;2023-03-12T06:33:20;95604.59;;;1.81;100.00
57606;BME280;43430;48.204;11.556;2023-03-12T06:35:48;95609.91;;;1.87;100.00
57606;BME280;43430;48.204;11.556;2023-03-12T06:38:17;95610.69;;;1.73;100.00
57606;BME280;43430;48.204;11.556;2023-03-12T06:40:42;95617.41;;;1.82;100.00
57606;BME280;43430;48.204;11.556;2023-03-12T06:43:07;95609.16;;;1.79;100.00
57606;BME280;43430;48.204;11.556;2023-03-12T06:45:36;95614.34;;;1.79;100.00
57606;BME280;43430;48.204;11.556;2023-03-12T06:48:02;95623.47;;;1.98;100.00
57606;BME280;43430;48.204;11.556;2023-03-12T06:50:28;95622.03;;;1.95;100.00
57606;BME280;43430;48.204;11.556;2023-03-12T06:52:53;95627.41;;;1.94;100.00
57606;BME280;43430;48.204;11.556;2023-03-12T06:55:18;95637.16;;;1.92;100.00
57606;BME280;43430;48.204;11.556;2023-03-12T06:57:44;95642.38;;;1.92;100.00
57606;BME280;43430;48.204;11.556;2023-03-12T07:00:09;95639.88;;;1.98;100.00
57606;BME280;43430;48.204;11.556;2023-03-12T07:02:35;95640.28;;;2.10;100.00
57606;BME280;43430;48.204;11.556;2023-03-12T07:05:01;95638.38;;;2.04;100.00
57606;BME280;43430;48.204;11.556;2023-03-12T07:07:26;95636.94;;;2.16;100.00
57606;BME280;43430;48.204;11.556;2023-03-12T07:09:51;95641.19;;;2.17;100.00
57606;BME280;43430;48.204;11.556;2023-03-12T07:12:17;95651.69;;;2.24;100.00
57606;BME280;43430;48.204;11.556;2023-03-12T07:14:42;95650.69;;;2.40;100.00
57606;BME280;43430;48.204;11.556;2023-03-12T07:17:07;95648.19;;;2.31;100.00
57606;BME280;43430;48.204;11.556;2023-03-12T07:19:33;95653.66;;;2.36;100.00
57606;BME280;43430;48.204;11.556;2023-03-12T07:21:58;95648.38;;;2.45;100.00
57606;BME280;43430;48.204;11.556;2023-03-12T07:24:23;95657.34;;;2.42;100.00
57606;BME280;43430;48.204;11.556;2023-03-12T07:26:49;95662.53;;;2.27;100.00
57606;BME280;43430;48.204;11.556;2023-03-12T07:29:14;95653.03;;;2.34;100.00
57606;BME280;43430;48.204;11.556;2023-03-12T07:31:40;95642.44;;;2.51;100.00
57606;BME280;43430;48.204;11.556;2023-03-12T07:34:05;95628.69;;;2.57;100.00
57606;BME280;43430;48.204;11.556;2023-03-12T07:36:31;95635.88;;;2.70;100.00
57606;BME280;43430;48.204;11.556;2023-03-12T07:38:57;95635.34;;;2.74;100.00
57606;BME280;43430;48.204;11.556;2023-03-12T07:41:23;95638.66;;;2.83;100.00
57606;BME280;43430;48.204;11.556;2023-03-12T07:43:48;95640.22;;;2.99;100.00
57606;BME280;43430;48.204;11.556;2023-03-12T07:46:14;95636.59;;;2.93;100.00
57606;BME280;43430;48.204;11.556;2023-03-12T07:48:39;95642.06;;;2.83;100.00
57606;BME280;43430;48.204;11.556;2023-03-12T07:51:05;95639.88;;;3.02;100.00
57606;BME280;43430;48.204;11.556;2023-03-12T07:53:31;95643.47;;;3.01;100.00
57606;BME280;43430;48.204;11.556;2023-03-12T07:55:56;95634.34;;;3.26;100.00
57606;BME280;43430;48.204;11.556;2023-03-12T07:58:21;95638.56;;;3.27;100.00
57606;BME280;43430;48.204;11.556;2023-03-12T08:00:47;95637.84;;;3.55;100.00
57606;BME280;43430;48.204;11.556;2023-03-12T08:03:12;95637.34;;;3.66;100.00
57606;BME280;43430;48.204;11.556;2023-03-12T08:05:38;95643.53;;;3.44;100.00
57606;BME280;43430;48.204;11.556;2023-03-12T08:08:03;95643.03;;;3.33;100.00
57606;BME280;43430;48.204;11.556;2023-03-12T08:10:29;95649.78;;;3.28;100.00
57606;BME280;43430;48.204;11.556;2023-03-12T08:12:54;95640.56;;;3.47;100.00
57606;BME280;43430;48.204;11.556;2023-03-12T08:15:20;95647.00;;;3.51;100.00
57606;BME280;43430;48.204;11.556;2023-03-12T08:17:45;95656.47;;;3.52;100.00
57606;BME280;43430;48.204;11.556;2023-03-12T08:20:11;95654.00;;;3.65;100.00
57606;BME280;43430;48.204;11.556;2023-03-12T08:22:37;95647.03;;;3.72;100.00
57606;BME280;43430;48.204;11.556;2023-03-12T08:25:03;95653.22;;;3.50;100.00
57606;BME280;43430;48.204;11.556;2023-03-12T08:27:29;95650.31;;;3.60;100.00
57606;BME280;43430;48.204;11.556;2023-03-12T08:29:54;95655.31;;;3.40;100.00
57606;BME280;43430;48.204;11.556;2023-03-12T08:32:20;95656.25;;;3.53;100.00
57606;BME280;43430;48.204;11.556;2023-03-12T08:34:45;95653.47;;;3.76;100.00
57606;BME280;43430;48.204;11.556;2023-03-12T08:37:11;95651.31;;;3.80;100.00
57606;BME280;43430;48.204;11.556;2023-03-12T08:39:36;95652.91;;;3.60;100.00
57606;BME280;43430;48.204;11.556;2023-03-12T08:42:02;95652.50;;;3.56;100.00
57606;BME280;43430;48.204;11.556;2023-03-12T08:44:28;95646.03;;;3.73;100.00
57606;BME280;43430;48.204;11.556;2023-03-12T08:46:53;95648.63;;;3.73;100.00
57606;BME280;43430;48.204;11.556;2023-03-12T08:49:20;95648.75;;;3.87;100.00
57606;BME280;43430;48.204;11.556;2023-03-12T08:51:46;95650.13;;;3.61;100.00
57606;BME280;43430;48.204;11.556;2023-03-12T08:54:11;95648.34;;;3.83;100.00
57606;BME280;43430;48.204;11.556;2023-03-12T08:56:37;95650.09;;;4.04;100.00
57606;BME280;43430;48.204;11.556;2023-03-12T08:59:06;95656.28;;;3.96;100.00
57606;BME280;43430;48.204;11.556;2023-03-12T09:01:32;95666.13;;;4.01;100.00
57606;BME280;43430;48.204;11.556;2023-03-12T09:03:57;95679.63;;;3.83;100.00
57606;BME280;43430;48.204;11.556;2023-03-12T09:06:23;95675.44;;;3.67;100.00
57606;BME280;43430;48.204;11.556;2023-03-12T09:08:48;95693.31;;;3.49;100.00
57606;BME280;43430;48.204;11.556;2023-03-12T09:11:15;95693.31;;;3.49;100.00
57606;BME280;43430;48.204;11.556;2023-03-12T09:13:41;95697.00;;;3.54;100.00
57606;BME280;43430;48.204;11.556;2023-03-12T09:16:06;95700.88;;;3.44;100.00
57606;BME280;43430;48.204;11.556;2023-03-12T09:18:32;95703.47;;;3.44;100.00
57606;BME280;43430;48.204;11.556;2023-03-12T09:20:58;95708.75;;;3.50;100.00
57606;BME280;43430;48.204;11.556;2023-03-12T09:23:24;95717.47;;;3.57;100.00
57606;BME280;43430;48.204;11.556;2023-03-12T09:25:50;95711.44;;;3.57;100.00
57606;BME280;43430;48.204;11.556;2023-03-12T09:28:16;95714.06;;;3.78;100.00
57606;BME280;43430;48.204;11.556;2023-03-12T09:30:41;95723.31;;;4.02;100.00
57606;BME280;43430;48.204;11.556;2023-03-12T09:33:07;95726.88;;;3.73;100.00
57606;BME280;43430;48.204;11.556;2023-03-12T09:35:42;95732.22;;;3.87;100.00
57606;BME280;43430;48.204;11.556;2023-03-12T09:38:11;95740.75;;;3.59;100.00
57606;BME280;43430;48.204;11.556;2023-03-12T09:40:37;95743.97;;;3.61;100.00
57606;BME280;43430;48.204;11.556;2023-03-12T09:43:09;95746.44;;;3.48;100.00
57606;BME280;43430;48.204;11.556;2023-03-12T09:45:40;95751.41;;;3.28;100.00
57606;BME280;43430;48.204;11.556;2023-03-12T09:48:13;95749.50;;;3.51;100.00
57606;BME280;43430;48.204;11.556;2023-03-12T09:50:41;95764.09;;;3.67;100.00
57606;BME280;43430;48.204;11.556;2023-03-12T09:55:52;95759.94;;;3.51;100.00
57606;BME280;43430;48.204;11.556;2023-03-12T09:58:31;95765.66;;;3.47;100.00
57606;BME280;43430;48.204;11.556;2023-03-12T10:01:13;95766.31;;;3.49;100.00
57606;BME280;43430;48.204;11.556;2023-03-12T10:06:54;95768.09;;;3.48;100.00
57606;BME280;43430;48.204;11.556;2023-03-12T10:09:31;95777.72;;;3.48;100.00
57606;BME280;43430;48.204;11.556;2023-03-12T10:12:07;95774.38;;;3.54;100.00
57606;BME280;43430;48.204;11.556;2023-03-12T10:14:55;95771.78;;;3.39;100.00
57606;BME280;43430;48.204;11.556;2023-03-12T10:17:44;95781.25;;;3.25;100.00
57606;BME280;43430;48.204;11.556;2023-03-12T10:20:36;95779.16;;;3.36;100.00
57606;BME280;43430;48.204;11.556;2023-03-12T10:23:19;95778.84;;;3.24;100.00
57606;BME280;43430;48.204;11.556;2023-03-12T10:25:57;95774.84;;;3.13;100.00
57606;BME280;43430;48.204;11.556;2023-03-12T10:28:33;95779.81;;;3.08;100.00
57606;BME280;43430;48.204;11.556;2023-03-12T10:31:11;95778.47;;;3.27;100.00
57606;BME280;43430;48.204;11.556;2023-03-12T10:33:45;95787.72;;;3.44;100.00
57606;BME280;43430;48.204;11.556;2023-03-12T10:36:18;95789.88;;;3.26;100.00
57606;BME280;43430;48.204;11.556;2023-03-12T10:38:44;95790.88;;;3.10;100.00
57606;BME280;43430;48.204;11.556;2023-03-12T10:41:22;95798.84;;;3.08;100.00
57606;BME280;43430;48.204;11.556;2023-03-12T10:43:49;95813.94;;;3.13;100.00
57606;BME280;43430;48.204;11.556;2023-03-12T10:52:01;95804.41;;;2.91;100.00
57606;BME280;43430;48.204;11.556;2023-03-12T10:56:54;95809.38;;;3.00;100.00
57606;BME280;43430;48.204;11.556;2023-03-12T18:34:34;95736.53;;;6.89;100.00
57606;BME280;43430;48.204;11.556;2023-03-12T18:36:59;95740.38;;;6.80;100.00
57606;BME280;43430;48.204;11.556;2023-03-12T18:39:25;95730.69;;;6.80;100.00
57606;BME280;43430;48.204;11.556;2023-03-12T18:41:53;95746.00;;;6.77;100.00
57606;BME280;43430;48.204;11.556;2023-03-12T18:44:18;95745.44;;;6.75;100.00
57606;BME280;43430;48.204;11.556;2023-03-12T18:46:43;95741.56;;;6.71;100.00
57606;BME280;43430;48.204;11.556;2023-03-12T18:49:09;95736.56;;;6.69;100.00
57606;BME280;43430;48.204;11.556;2023-03-12T18:51:36;95734.34;;;6.66;100.00
57606;BME280;43430;48.204;11.556;2023-03-12T18:54:02;95737.56;;;6.68;100.00
57606;BME280;43430;48.204;11.556;2023-03-12T18:56:27;95750.06;;;6.73;100.00
57606;BME280;43430;48.204;11.556;2023-03-12T18:58:53;95748.84;;;6.62;100.00
57606;BME280;43430;48.204;11.556;2023-03-12T19:01:19;95758.31;;;6.70;100.00
57606;BME280;43430;48.204;11.556;2023-03-12T19:03:45;95760.53;;;6.73;100.00
57606;BME280;43430;48.204;11.556;2023-03-12T19:06:13;95765.16;;;6.71;100.00
57606;BME280;43430;48.204;11.556;2023-03-12T19:08:39;95763.97;;;6.73;100.00
57606;BME280;43430;48.204;11.556;2023-03-12T19:11:07;95775.63;;;6.71;100.00
57606;BME280;43430;48.204;11.556;2023-03-12T19:13:33;95768.78;;;6.63;100.00
57606;BME280;43430;48.204;11.556;2023-03-12T19:16:02;95771.41;;;6.56;100.00
57606;BME280;43430;48.204;11.556;2023-03-12T19:18:28;95774.03;;;6.56;100.00
57606;BME280;43430;48.204;11.556;2023-03-12T19:20:53;95773.84;;;6.58;100.00
57606;BME280;43430;48.204;11.556;2023-03-12T19:23:19;95777.06;;;6.60;100.00
57606;BME280;43430;48.204;11.556;2023-03-12T19:25:44;95776.25;;;6.59;100.00
57606;BME280;43430;48.204;11.556;2023-03-12T19:28:13;95784.34;;;6.64;100.00
57606;BME280;43430;48.204;11.556;2023-03-12T19:30:38;95781.50;;;6.66;100.00
57606;BME280;43430;48.204;11.556;2023-03-12T19:33:03;95787.94;;;6.63;100.00
57606;BME280;43430;48.204;11.556;2023-03-12T19:35:29;95786.72;;;6.66;100.00
57606;BME280;43430;48.204;11.556;2023-03-12T19:37:54;95793.19;;;6.63;100.00
57606;BME280;43430;48.204;11.556;2023-03-12T19:40:22;95799.66;;;6.68;100.00
57606;BME280;43430;48.204;11.556;2023-03-12T19:42:47;95791.97;;;6.66;100.00
57606;BME280;43430;48.204;11.556;2023-03-12T19:45:13;95796.81;;;6.62;100.00
57606;BME280;43430;48.204;11.556;2023-03-12T19:47:39;95798.81;;;6.60;100.00
57606;BME280;43430;48.204;11.556;2023-03-12T19:50:06;95798.22;;;6.58;100.00
57606;BME280;43430;48.204;11.556;2023-03-12T19:52:31;95786.94;;;6.64;100.00
57606;BME280;43430;48.204;11.556;2023-03-12T19:54:57;95799.25;;;6.57;100.00
57606;BME280;43430;48.204;11.556;2023-03-12T19:57:22;95802.25;;;6.61;100.00
57606;BME280;43430;48.204;11.556;2023-03-12T19:59:47;95804.66;;;6.62;100.00
57606;BME280;43430;48.204;11.556;2023-03-12T20:02:13;95802.66;;;6.64;100.00
57606;BME280;43430;48.204;11.556;2023-03-12T20:04:39;95809.28;;;6.60;100.00
57606;BME280;43430;48.204;11.556;2023-03-12T20:07:05;95819.78;;;6.60;100.00
57606;BME280;43430;48.204;11.556;2023-03-12T20:09:30;95822.22;;;6.62;100.00
57606;BME280;43430;48.204;11.556;2023-03-12T20:11:56;95817.78;;;6.62;100.00
57606;BME280;43430;48.204;11.556;2023-03-12T20:14:22;95821.00;;;6.64;100.00
57606;BME280;43430;48.204;11.556;2023-03-12T20:16:49;95821.00;;;6.64;100.00
57606;BME280;43430;48.204;11.556;2023-03-12T20:19:14;95820.59;;;6.74;100.00
57606;BME280;43430;48.204;11.556;2023-03-12T20:21:39;95821.59;;;6.66;100.00
57606;BME280;43430;48.204;11.556;2023-03-12T20:24:05;95823.63;;;6.64;100.00
57606;BME280;43430;48.204;11.556;2023-03-12T20:26:30;95823.63;;;6.64;100.00
57606;BME280;43430;48.204;11.556;2023-03-12T20:28:59;95827.44;;;6.69;100.00
57606;BME280;43430;48.204;11.556;2023-03-12T20:31:25;95811.34;;;6.65;100.00
57606;BME280;43430;48.204;11.556;2023-03-12T20:33:51;95824.03;;;6.75;100.00
57606;BME280;43430;48.204;11.556;2023-03-12T20:36:16;95818.78;;;6.75;100.00
57606;BME280;43430;48.204;11.556;2023-03-12T20:38:42;95814.13;;;6.77;100.00
57606;BME280;43430;48.204;11.556;2023-03-12T20:41:14;95811.75;;;6.82;100.00